sensor_id;sensor_type;location;lat;lon;timestamp;P1;durP1;ratioP1;P2;durP2;ratioP2
64678;SDS011;51094;53.864;27.676;2023-03-14T00:00:17;3.20;;;3.20;;
64678;SDS011;51094;53.864;27.676;2023-03-14T00:02:44;3.38;;;3.38;;
64678;SDS011;51094;53.864;27.676;2023-03-14T00:05:11;3.30;;;3.25;;
64678;SDS011;51094;53.864;27.676;2023-03-14T00:07:39;3.58;;;3.53;;
64678;SDS011;51094;53.864;27.676;2023-03-14T00:10:07;3.30;;;3.22;;
64678;SDS011;51094;53.864;27.676;2023-03-14T00:12:39;3.45;;;3.45;;
64678;SDS011;51094;53.864;27.676;2023-03-14T00:15:07;3.38;;;3.28;;
64678;SDS011;51094;53.864;27.676;2023-03-14T00:17:35;3.50;;;3.50;;
64678;SDS011;51094;53.864;27.676;2023-03-14T00:20:06;3.95;;;3.85;;
64678;SDS011;51094;53.864;27.676;2023-03-14T00:22:38;3.35;;;3.25;;
64678;SDS011;51094;53.864;27.676;2023-03-14T00:25:05;3.30;;;3.30;;
64678;SDS011;51094;53.864;27.676;2023-03-14T00:27:34;3.22;;;3.22;;
64678;SDS011;51094;53.864;27.676;2023-03-14T00:30:08;3.50;;;3.50;;
64678;SDS011;51094;53.864;27.676;2023-03-14T00:32:36;3.45;;;3.35;;
64678;SDS011;51094;53.864;27.676;2023-03-14T00:35:03;3.40;;;3.40;;
64678;SDS011;51094;53.864;27.676;2023-03-14T00:37:30;3.13;;;3.13;;
64678;SDS011;51094;53.864;27.676;2023-03-14T00:39:57;3.30;;;3.30;;
64678;SDS011;51094;53.864;27.676;2023-03-14T00:42:25;3.00;;;3.00;;
64678;SDS011;51094;53.864;27.676;2023-03-14T00:44:51;3.00;;;3.00;;
64678;SDS011;51094;53.864;27.676;2023-03-14T00:47:18;3.05;;;3.05;;
64678;SDS011;51094;53.864;27.676;2023-03-14T00:49:45;3.30;;;3.20;;
64678;SDS011;51094;53.864;27.676;2023-03-14T00:52:12;3.10;;;3.10;;
64678;SDS011;51094;53.864;27.676;2023-03-14T00:54:38;2.90;;;2.90;;
64678;SDS011;51094;53.864;27.676;2023-03-14T00:57:05;2.97;;;2.97;;
64678;SDS011;51094;53.864;27.676;2023-03-14T00:59:32;2.95;;;2.95;;
64678;SDS011;51094;53.864;27.676;2023-03-14T01:01:59;3.08;;;2.97;;
64678;SDS011;51094;53.864;27.676;2023-03-14T01:04:27;2.95;;;2.95;;
64678;SDS011;51094;53.864;27.676;2023-03-14T01:06:54;2.90;;;2.90;;
64678;SDS011;51094;53.864;27.676;2023-03-14T01:09:21;2.70;;;2.70;;
64678;SDS011;51094;53.864;27.676;2023-03-14T01:11:47;2.75;;;2.75;;
64678;SDS011;51094;53.864;27.676;2023-03-14T01:14:16;2.90;;;2.90;;
64678;SDS011;51094;53.864;27.676;2023-03-14T01:16:43;3.10;;;3.10;;
64678;SDS011;51094;53.864;27.676;2023-03-14T01:19:09;3.47;;;3.47;;
64678;SDS011;51094;53.864;27.676;2023-03-14T01:21:36;2.90;;;2.90;;
64678;SDS011;51094;53.864;27.676;2023-03-14T01:24:04;2.80;;;2.80;;
64678;SDS011;51094;53.864;27.676;2023-03-14T01:26:33;3.15;;;3.15;;
64678;SDS011;51094;53.864;27.676;2023-03-14T01:31:33;2.88;;;2.88;;
64678;SDS011;51094;53.864;27.676;2023-03-14T01:33:59;3.30;;;3.20;;
64678;SDS011;51094;53.864;27.676;2023-03-14T01:36:26;2.80;;;2.80;;
64678;SDS011;51094;53.864;27.676;2023-03-14T01:38:58;2.90;;;2.90;;
64678;SDS011;51094;53.864;27.676;2023-03-14T01:41:25;3.05;;;3.05;;
64678;SDS011;51094;53.864;27.676;2023-03-14T01:43:55;2.88;;;2.88;;
64678;SDS011;51094;53.864;27.676;2023-03-14T01:46:38;3.10;;;3.10;;
64678;SDS011;51094;53.864;27.676;2023-03-14T01:54:38;2.63;;;2.63;;
64678;SDS011;51094;53.864;27.676;2023-03-14T01:57:32;2.78;;;2.78;;
64678;SDS011;51094;53.864;27.676;2023-03-14T02:00:13;2.80;;;2.70;;
64678;SDS011;51094;53.864;27.676;2023-03-14T02:02:53;2.88;;;2.88;;
64678;SDS011;51094;53.864;27.676;2023-03-14T02:05:25;2.78;;;2.78;;
64678;SDS011;51094;53.864;27.676;2023-03-14T02:08:01;2.55;;;2.55;;
64678;SDS011;51094;53.864;27.676;2023-03-14T02:10:39;2.78;;;2.78;;
64678;SDS011;51094;53.864;27.676;2023-03-14T02:13:09;3.10;;;3.10;;
64678;SDS011;51094;53.864;27.676;2023-03-14T02:15:58;2.80;;;2.80;;
64678;SDS011;51094;53.864;27.676;2023-03-14T02:18:42;3.20;;;3.20;;
64678;SDS011;51094;53.864;27.676;2023-03-14T02:27:06;3.05;;;3.05;;
64678;SDS011;51094;53.864;27.676;2023-03-14T02:29:39;3.70;;;3.60;;
64678;SDS011;51094;53.864;27.676;2023-03-14T02:32:12;4.05;;;3.95;;
64678;SDS011;51094;53.864;27.676;2023-03-14T02:34:41;3.75;;;3.65;;
64678;SDS011;51094;53.864;27.676;2023-03-14T02:37:12;3.58;;;3.47;;
64678;SDS011;51094;53.864;27.676;2023-03-14T02:39:43;4.40;;;4.30;;
64678;SDS011;51094;53.864;27.676;2023-03-14T02:42:13;3.90;;;3.80;;
64678;SDS011;51094;53.864;27.676;2023-03-14T02:45:42;4.10;;;4.00;;
64678;SDS011;51094;53.864;27.676;2023-03-14T02:47:44;3.10;;;3.10;;
64678;SDS011;51094;53.864;27.676;2023-03-14T02:50:17;2.80;;;2.80;;
64678;SDS011;51094;53.864;27.676;2023-03-14T02:52:47;2.60;;;2.60;;
64678;SDS011;51094;53.864;27.676;2023-03-14T02:55:13;2.85;;;2.85;;
64678;SDS011;51094;53.864;27.676;2023-03-14T02:57:43;2.47;;;2.47;;
64678;SDS011;51094;53.864;27.676;2023-03-14T03:00:10;2.78;;;2.78;;
64678;SDS011;51094;53.864;27.676;2023-03-14T03:02:38;2.83;;;2.83;;
64678;SDS011;51094;53.864;27.676;2023-03-14T03:05:04;2.78;;;2.78;;
64678;SDS011;51094;53.864;27.676;2023-03-14T03:07:31;2.80;;;2.80;;
64678;SDS011;51094;53.864;27.676;2023-03-14T03:09:58;2.63;;;2.63;;
64678;SDS011;51094;53.864;27.676;2023-03-14T03:12:25;3.17;;;3.17;;
64678;SDS011;51094;53.864;27.676;2023-03-14T03:14:52;2.80;;;2.80;;
64678;SDS011;51094;53.864;27.676;2023-03-14T03:17:19;2.83;;;2.83;;
64678;SDS011;51094;53.864;27.676;2023-03-14T03:19:46;2.80;;;2.80;;
64678;SDS011;51094;53.864;27.676;2023-03-14T03:22:12;2.67;;;2.67;;
64678;SDS011;51094;53.864;27.676;2023-03-14T03:24:40;2.83;;;2.83;;
64678;SDS011;51094;53.864;27.676;2023-03-14T03:27:06;2.60;;;2.60;;
64678;SDS011;51094;53.864;27.676;2023-03-14T03:29:34;2.70;;;2.70;;
64678;SDS011;51094;53.864;27.676;2023-03-14T03:32:01;4.13;;;4.03;;
64678;SDS011;51094;53.864;27.676;2023-03-14T03:34:28;3.63;;;3.63;;
64678;SDS011;51094;53.864;27.676;2023-03-14T03:36:56;2.78;;;2.78;;
64678;SDS011;51094;53.864;27.676;2023-03-14T03:39:25;2.47;;;2.47;;
64678;SDS011;51094;53.864;27.676;2023-03-14T03:41:51;2.60;;;2.60;;
64678;SDS011;51094;53.864;27.676;2023-03-14T03:44:19;2.60;;;2.60;;
64678;SDS011;51094;53.864;27.676;2023-03-14T03:46:46;2.60;;;2.60;;
64678;SDS011;51094;53.864;27.676;2023-03-14T03:49:12;2.55;;;2.55;;
64678;SDS011;51094;53.864;27.676;2023-03-14T03:51:39;2.47;;;2.47;;
64678;SDS011;51094;53.864;27.676;2023-03-14T03:54:07;2.60;;;2.60;;
64678;SDS011;51094;53.864;27.676;2023-03-14T03:56:34;2.75;;;2.75;;
64678;SDS011;51094;53.864;27.676;2023-03-14T03:59:01;2.95;;;2.95;;
64678;SDS011;51094;53.864;27.676;2023-03-14T04:01:27;2.40;;;2.40;;
64678;SDS011;51094;53.864;27.676;2023-03-14T04:03:57;2.85;;;2.85;;
64678;SDS011;51094;53.864;27.676;2023-03-14T04:06:26;2.67;;;2.67;;
64678;SDS011;51094;53.864;27.676;2023-03-14T04:11:34;2.60;;;2.60;;
64678;SDS011;51094;53.864;27.676;2023-03-14T04:14:10;2.60;;;2.60;;
64678;SDS011;51094;53.864;27.676;2023-03-14T04:16:37;2.55;;;2.50;;
64678;SDS011;51094;53.864;27.676;2023-03-14T04:19:10;2.50;;;2.50;;
64678;SDS011;51094;53.864;27.676;2023-03-14T04:21:38;2.33;;;2.33;;
64678;SDS011;51094;53.864;27.676;2023-03-14T04:24:12;2.50;;;2.50;;
64678;SDS011;51094;53.864;27.676;2023-03-14T04:26:41;2.42;;;2.42;;
64678;SDS011;51094;53.864;27.676;2023-03-14T04:29:09;2.92;;;2.85;;
64678;SDS011;51094;53.864;27.676;2023-03-14T04:31:39;2.60;;;2.60;;
64678;SDS011;51094;53.864;27.676;2023-03-14T04:34:05;2.60;;;2.60;;
64678;SDS011;51094;53.864;27.676;2023-03-14T04:36:41;2.60;;;2.60;;
64678;SDS011;51094;53.864;27.676;2023-03-14T04:39:13;2.50;;;2.50;;
64678;SDS011;51094;53.864;27.676;2023-03-14T04:41:47;2.60;;;2.60;;
64678;SDS011;51094;53.864;27.676;2023-03-14T04:44:14;2.65;;;2.65;;
64678;SDS011;51094;53.864;27.676;2023-03-14T04:46:41;2.53;;;2.53;;
64678;SDS011;51094;53.864;27.676;2023-03-14T04:49:10;2.53;;;2.53;;
64678;SDS011;51094;53.864;27.676;2023-03-14T04:51:38;2.45;;;2.45;;
64678;SDS011;51094;53.864;27.676;2023-03-14T04:54:05;2.60;;;2.60;;
64678;SDS011;51094;53.864;27.676;2023-03-14T04:56:32;2.47;;;2.47;;
64678;SDS011;51094;53.864;27.676;2023-03-14T04:59:01;2.30;;;2.30;;
64678;SDS011;51094;53.864;27.676;2023-03-14T05:01:29;2.70;;;2.70;;
64678;SDS011;51094;53.864;27.676;2023-03-14T05:04:22;2.70;;;2.60;;
64678;SDS011;51094;53.864;27.676;2023-03-14T05:07:15;2.50;;;2.50;;
64678;SDS011;51094;53.864;27.676;2023-03-14T05:10:05;2.30;;;2.30;;
64678;SDS011;51094;53.864;27.676;2023-03-14T05:12:51;2.50;;;2.50;;
64678;SDS011;51094;53.864;27.676;2023-03-14T05:15:29;2.20;;;2.20;;
64678;SDS011;51094;53.864;27.676;2023-03-14T05:18:09;2.38;;;2.38;;
64678;SDS011;51094;53.864;27.676;2023-03-14T05:20:54;2.50;;;2.50;;
64678;SDS011;51094;53.864;27.676;2023-03-14T05:23:39;2.50;;;2.50;;
64678;SDS011;51094;53.864;27.676;2023-03-14T05:26:15;2.30;;;2.30;;
64678;SDS011;51094;53.864;27.676;2023-03-14T05:28:59;2.50;;;2.40;;
64678;SDS011;51094;53.864;27.676;2023-03-14T05:31:36;2.40;;;2.30;;
64678;SDS011;51094;53.864;27.676;2023-03-14T05:34:24;2.80;;;2.80;;
64678;SDS011;51094;53.864;27.676;2023-03-14T05:37:11;2.35;;;2.35;;
64678;SDS011;51094;53.864;27.676;2023-03-14T05:40:07;2.40;;;2.40;;
64678;SDS011;51094;53.864;27.676;2023-03-14T05:42:53;2.55;;;2.55;;
64678;SDS011;51094;53.864;27.676;2023-03-14T05:45:38;2.40;;;2.40;;
64678;SDS011;51094;53.864;27.676;2023-03-14T05:48:26;2.30;;;2.30;;
64678;SDS011;51094;53.864;27.676;2023-03-14T05:51:25;2.28;;;2.28;;
64678;SDS011;51094;53.864;27.676;2023-03-14T05:54:19;2.30;;;2.30;;
64678;SDS011;51094;53.864;27.676;2023-03-14T05:57:06;2.38;;;2.38;;
64678;SDS011;51094;53.864;27.676;2023-03-14T06:00:08;2.33;;;2.33;;
64678;SDS011;51094;53.864;27.676;2023-03-14T06:02:40;2.30;;;2.30;;
64678;SDS011;51094;53.864;27.676;2023-03-14T06:05:17;2.20;;;2.20;;
64678;SDS011;51094;53.864;27.676;2023-03-14T06:07:44;2.13;;;2.13;;
64678;SDS011;51094;53.864;27.676;2023-03-14T06:10:11;2.10;;;2.10;;
64678;SDS011;51094;53.864;27.676;2023-03-14T06:12:38;2.35;;;2.35;;
64678;SDS011;51094;53.864;27.676;2023-03-14T06:15:05;2.00;;;2.00;;
64678;SDS011;51094;53.864;27.676;2023-03-14T06:17:33;2.30;;;2.30;;
64678;SDS011;51094;53.864;27.676;2023-03-14T06:20:05;2.30;;;2.30;;
64678;SDS011;51094;53.864;27.676;2023-03-14T06:22:33;2.00;;;2.00;;
64678;SDS011;51094;53.864;27.676;2023-03-14T06:25:01;2.10;;;2.10;;
64678;SDS011;51094;53.864;27.676;2023-03-14T06:27:28;2.30;;;2.30;;
64678;SDS011;51094;53.864;27.676;2023-03-14T06:29:56;2.00;;;2.00;;
64678;SDS011;51094;53.864;27.676;2023-03-14T06:32:24;2.00;;;2.00;;
64678;SDS011;51094;53.864;27.676;2023-03-14T06:34:54;2.10;;;2.10;;
64678;SDS011;51094;53.864;27.676;2023-03-14T06:37:21;2.45;;;2.45;;
64678;SDS011;51094;53.864;27.676;2023-03-14T06:39:48;2.50;;;2.50;;
64678;SDS011;51094;53.864;27.676;2023-03-14T06:42:26;2.38;;;2.38;;
64678;SDS011;51094;53.864;27.676;2023-03-14T06:44:53;2.78;;;2.78;;
64678;SDS011;51094;53.864;27.676;2023-03-14T06:47:20;3.15;;;3.05;;
64678;SDS011;51094;53.864;27.676;2023-03-14T06:49:47;3.20;;;3.20;;
64678;SDS011;51094;53.864;27.676;2023-03-14T06:52:17;3.40;;;3.30;;
64678;SDS011;51094;53.864;27.676;2023-03-14T06:54:44;3.65;;;3.60;;
64678;SDS011;51094;53.864;27.676;2023-03-14T06:57:10;4.60;;;4.50;;
64678;SDS011;51094;53.864;27.676;2023-03-14T06:59:37;4.47;;;4.28;;
64678;SDS011;51094;53.864;27.676;2023-03-14T07:02:04;4.05;;;3.95;;
64678;SDS011;51094;53.864;27.676;2023-03-14T07:04:34;3.80;;;3.70;;
64678;SDS011;51094;53.864;27.676;2023-03-14T07:07:01;3.95;;;3.85;;
64678;SDS011;51094;53.864;27.676;2023-03-14T07:09:32;3.97;;;3.88;;
64678;SDS011;51094;53.864;27.676;2023-03-14T07:12:00;4.70;;;4.60;;
64678;SDS011;51094;53.864;27.676;2023-03-14T07:14:28;4.60;;;4.50;;
64678;SDS011;51094;53.864;27.676;2023-03-14T07:16:54;4.00;;;3.90;;
64678;SDS011;51094;53.864;27.676;2023-03-14T07:19:21;3.63;;;3.63;;
64678;SDS011;51094;53.864;27.676;2023-03-14T07:21:49;3.40;;;3.30;;
64678;SDS011;51094;53.864;27.676;2023-03-14T07:24:20;4.20;;;4.10;;
64678;SDS011;51094;53.864;27.676;2023-03-14T07:26:48;4.00;;;3.90;;
64678;SDS011;51094;53.864;27.676;2023-03-14T07:29:15;4.18;;;4.07;;
64678;SDS011;51094;53.864;27.676;2023-03-14T07:31:42;3.78;;;3.67;;
64678;SDS011;51094;53.864;27.676;2023-03-14T07:34:09;3.53;;;3.42;;
64678;SDS011;51094;53.864;27.676;2023-03-14T07:36:39;2.83;;;2.72;;
64678;SDS011;51094;53.864;27.676;2023-03-14T07:39:06;2.58;;;2.58;;
64678;SDS011;51094;53.864;27.676;2023-03-14T07:41:39;2.30;;;2.30;;
64678;SDS011;51094;53.864;27.676;2023-03-14T07:44:29;2.30;;;2.30;;
64678;SDS011;51094;53.864;27.676;2023-03-14T07:46:56;1.88;;;1.88;;
64678;SDS011;51094;53.864;27.676;2023-03-14T07:49:23;1.92;;;1.92;;
64678;SDS011;51094;53.864;27.676;2023-03-14T07:51:49;1.73;;;1.73;;
64678;SDS011;51094;53.864;27.676;2023-03-14T07:54:16;1.80;;;1.80;;
64678;SDS011;51094;53.864;27.676;2023-03-14T07:56:46;1.70;;;1.70;;
64678;SDS011;51094;53.864;27.676;2023-03-14T07:59:13;1.70;;;1.70;;
64678;SDS011;51094;53.864;27.676;2023-03-14T08:01:39;1.70;;;1.70;;
64678;SDS011;51094;53.864;27.676;2023-03-14T08:04:07;1.75;;;1.75;;
64678;SDS011;51094;53.864;27.676;2023-03-14T08:06:34;1.92;;;1.92;;
64678;SDS011;51094;53.864;27.676;2023-03-14T08:09:02;1.90;;;1.90;;
64678;SDS011;51094;53.864;27.676;2023-03-14T08:11:29;1.80;;;1.80;;
64678;SDS011;51094;53.864;27.676;2023-03-14T08:13:56;1.80;;;1.80;;
64678;SDS011;51094;53.864;27.676;2023-03-14T08:16:23;1.73;;;1.73;;
64678;SDS011;51094;53.864;27.676;2023-03-14T08:18:50;1.70;;;1.70;;
64678;SDS011;51094;53.864;27.676;2023-03-14T08:21:17;1.70;;;1.70;;
64678;SDS011;51094;53.864;27.676;2023-03-14T08:23:43;1.63;;;1.63;;
64678;SDS011;51094;53.864;27.676;2023-03-14T08:26:10;1.67;;;1.67;;
64678;SDS011;51094;53.864;27.676;2023-03-14T08:28:37;1.52;;;1.52;;
64678;SDS011;51094;53.864;27.676;2023-03-14T08:31:04;1.85;;;1.85;;
64678;SDS011;51094;53.864;27.676;2023-03-14T08:33:31;1.80;;;1.80;;
64678;SDS011;51094;53.864;27.676;2023-03-14T08:35:59;1.70;;;1.70;;
64678;SDS011;51094;53.864;27.676;2023-03-14T08:38:27;1.80;;;1.80;;
64678;SDS011;51094;53.864;27.676;2023-03-14T08:40:55;1.65;;;1.65;;
64678;SDS011;51094;53.864;27.676;2023-03-14T08:43:24;1.60;;;1.60;;
64678;SDS011;51094;53.864;27.676;2023-03-14T08:45:50;1.70;;;1.70;;
64678;SDS011;51094;53.864;27.676;2023-03-14T08:48:17;1.80;;;1.80;;
64678;SDS011;51094;53.864;27.676;2023-03-14T08:50:46;2.10;;;2.10;;
64678;SDS011;51094;53.864;27.676;2023-03-14T08:53:13;2.10;;;2.10;;
64678;SDS011;51094;53.864;27.676;2023-03-14T08:55:40;2.17;;;2.17;;
64678;SDS011;51094;53.864;27.676;2023-03-14T08:58:07;2.20;;;2.20;;
64678;SDS011;51094;53.864;27.676;2023-03-14T09:00:34;1.85;;;1.85;;
64678;SDS011;51094;53.864;27.676;2023-03-14T09:03:01;2.75;;;2.72;;
64678;SDS011;51094;53.864;27.676;2023-03-14T09:05:28;2.20;;;2.20;;
64678;SDS011;51094;53.864;27.676;2023-03-14T09:07:55;1.80;;;1.80;;
64678;SDS011;51094;53.864;27.676;2023-03-14T09:10:21;1.90;;;1.90;;
64678;SDS011;51094;53.864;27.676;2023-03-14T09:12:48;2.00;;;2.00;;
64678;SDS011;51094;53.864;27.676;2023-03-14T09:15:15;2.10;;;2.10;;
64678;SDS011;51094;53.864;27.676;2023-03-14T09:17:42;1.83;;;1.83;;
64678;SDS011;51094;53.864;27.676;2023-03-14T09:20:10;1.77;;;1.77;;
64678;SDS011;51094;53.864;27.676;2023-03-14T09:22:37;1.73;;;1.73;;
64678;SDS011;51094;53.864;27.676;2023-03-14T09:25:04;1.70;;;1.70;;
64678;SDS011;51094;53.864;27.676;2023-03-14T09:27:31;1.77;;;1.77;;
64678;SDS011;51094;53.864;27.676;2023-03-14T09:29:58;1.80;;;1.80;;
64678;SDS011;51094;53.864;27.676;2023-03-14T09:32:25;2.00;;;2.00;;
64678;SDS011;51094;53.864;27.676;2023-03-14T09:34:52;2.00;;;2.00;;
64678;SDS011;51094;53.864;27.676;2023-03-14T09:37:19;1.92;;;1.92;;
64678;SDS011;51094;53.864;27.676;2023-03-14T09:39:47;1.90;;;1.90;;
64678;SDS011;51094;53.864;27.676;2023-03-14T09:42:17;1.95;;;1.92;;
64678;SDS011;51094;53.864;27.676;2023-03-14T09:47:20;1.80;;;1.80;;
64678;SDS011;51094;53.864;27.676;2023-03-14T09:49:49;1.90;;;1.90;;
64678;SDS011;51094;53.864;27.676;2023-03-14T09:52:17;1.80;;;1.80;;
64678;SDS011;51094;53.864;27.676;2023-03-14T09:54:56;1.85;;;1.85;;
64678;SDS011;51094;53.864;27.676;2023-03-14T09:57:26;1.92;;;1.92;;
64678;SDS011;51094;53.864;27.676;2023-03-14T09:59:55;1.75;;;1.75;;
64678;SDS011;51094;53.864;27.676;2023-03-14T10:02:28;2.20;;;2.20;;
64678;SDS011;51094;53.864;27.676;2023-03-14T10:05:00;2.00;;;2.00;;
64678;SDS011;51094;53.864;27.676;2023-03-14T10:07:32;1.90;;;1.90;;
64678;SDS011;51094;53.864;27.676;2023-03-14T10:10:00;1.75;;;1.75;;
64678;SDS011;51094;53.864;27.676;2023-03-14T10:12:33;1.80;;;1.80;;
64678;SDS011;51094;53.864;27.676;2023-03-14T10:15:04;1.80;;;1.80;;
64678;SDS011;51094;53.864;27.676;2023-03-14T10:17:47;1.90;;;1.90;;
64678;SDS011;51094;53.864;27.676;2023-03-14T10:20:34;1.90;;;1.90;;
64678;SDS011;51094;53.864;27.676;2023-03-14T10:25:40;1.85;;;1.85;;
64678;SDS011;51094;53.864;27.676;2023-03-14T10:28:44;1.75;;;1.75;;
64678;SDS011;51094;53.864;27.676;2023-03-14T10:31:05;2.03;;;2.03;;
64678;SDS011;51094;53.864;27.676;2023-03-14T10:33:34;1.77;;;1.77;;
64678;SDS011;51094;53.864;27.676;2023-03-14T10:36:05;1.50;;;1.50;;
64678;SDS011;51094;53.864;27.676;2023-03-14T10:38:44;1.38;;;1.38;;
64678;SDS011;51094;53.864;27.676;2023-03-14T10:41:19;1.77;;;1.77;;
64678;SDS011;51094;53.864;27.676;2023-03-14T10:43:56;1.60;;;1.60;;
64678;SDS011;51094;53.864;27.676;2023-03-14T10:46:26;1.40;;;1.40;;
64678;SDS011;51094;53.864;27.676;2023-03-14T10:49:27;1.55;;;1.55;;
64678;SDS011;51094;53.864;27.676;2023-03-14T10:52:14;1.63;;;1.63;;
64678;SDS011;51094;53.864;27.676;2023-03-14T10:54:48;1.42;;;1.42;;
64678;SDS011;51094;53.864;27.676;2023-03-14T10:57:16;1.38;;;1.38;;
64678;SDS011;51094;53.864;27.676;2023-03-14T10:59:45;1.58;;;1.58;;
64678;SDS011;51094;53.864;27.676;2023-03-14T11:07:41;1.70;;;1.70;;
64678;SDS011;51094;53.864;27.676;2023-03-14T11:16:09;1.60;;;1.60;;
64678;SDS011;51094;53.864;27.676;2023-03-14T11:18:51;1.73;;;1.73;;
64678;SDS011;51094;53.864;27.676;2023-03-14T11:21:55;1.60;;;1.60;;
64678;SDS011;51094;53.864;27.676;2023-03-14T11:27:17;1.60;;;1.60;;
64678;SDS011;51094;53.864;27.676;2023-03-14T11:35:21;1.55;;;1.55;;
64678;SDS011;51094;53.864;27.676;2023-03-14T11:38:01;1.50;;;1.50;;
64678;SDS011;51094;53.864;27.676;2023-03-14T11:40:36;1.50;;;1.42;;
64678;SDS011;51094;53.864;27.676;2023-03-14T11:45:42;1.52;;;1.52;;
64678;SDS011;51094;53.864;27.676;2023-03-14T11:48:13;1.38;;;1.38;;
64678;SDS011;51094;53.864;27.676;2023-03-14T11:50:42;1.33;;;1.33;;
64678;SDS011;51094;53.864;27.676;2023-03-14T11:53:22;1.38;;;1.38;;
64678;SDS011;51094;53.864;27.676;2023-03-14T11:56:02;1.20;;;1.20;;
64678;SDS011;51094;53.864;27.676;2023-03-14T11:58:31;1.20;;;1.20;;
64678;SDS011;51094;53.864;27.676;2023-03-14T12:01:06;1.15;;;1.15;;
64678;SDS011;51094;53.864;27.676;2023-03-14T12:03:55;1.25;;;1.25;;
64678;SDS011;51094;53.864;27.676;2023-03-14T12:09:09;1.10;;;1.10;;
64678;SDS011;51094;53.864;27.676;2023-03-14T12:11:54;1.27;;;1.27;;
64678;SDS011;51094;53.864;27.676;2023-03-14T12:14:26;1.00;;;1.00;;
64678;SDS011;51094;53.864;27.676;2023-03-14T12:16:56;1.10;;;1.10;;
64678;SDS011;51094;53.864;27.676;2023-03-14T12:19:34;1.10;;;1.10;;
64678;SDS011;51094;53.864;27.676;2023-03-14T12:22:08;1.10;;;1.10;;
64678;SDS011;51094;53.864;27.676;2023-03-14T12:24:41;1.10;;;1.10;;
64678;SDS011;51094;53.864;27.676;2023-03-14T12:27:37;1.13;;;1.13;;
64678;SDS011;51094;53.864;27.676;2023-03-14T12:30:32;1.15;;;1.15;;
64678;SDS011;51094;53.864;27.676;2023-03-14T12:35:47;0.95;;;0.95;;
64678;SDS011;51094;53.864;27.676;2023-03-14T12:40:56;1.17;;;1.17;;
64678;SDS011;51094;53.864;27.676;2023-03-14T12:48:39;1.20;;;1.20;;
64678;SDS011;51094;53.864;27.676;2023-03-14T12:51:13;1.10;;;1.10;;
64678;SDS011;51094;53.864;27.676;2023-03-14T12:59:31;1.13;;;1.13;;
64678;SDS011;51094;53.864;27.676;2023-03-14T13:07:13;1.02;;;1.02;;
64678;SDS011;51094;53.864;27.676;2023-03-14T13:10:18;1.00;;;1.00;;
64678;SDS011;51094;53.864;27.676;2023-03-14T13:15:23;1.17;;;1.17;;
64678;SDS011;51094;53.864;27.676;2023-03-14T13:17:51;1.20;;;1.20;;
64678;SDS011;51094;53.864;27.676;2023-03-14T13:20:23;1.30;;;1.30;;
64678;SDS011;51094;53.864;27.676;2023-03-14T13:22:54;1.10;;;1.10;;
64678;SDS011;51094;53.864;27.676;2023-03-14T13:25:21;1.30;;;1.30;;
64678;SDS011;51094;53.864;27.676;2023-03-14T13:27:51;1.17;;;1.17;;
64678;SDS011;51094;53.864;27.676;2023-03-14T13:32:51;1.20;;;1.20;;
64678;SDS011;51094;53.864;27.676;2023-03-14T13:37:59;1.38;;;1.38;;
64678;SDS011;51094;53.864;27.676;2023-03-14T13:40:43;1.20;;;1.20;;
64678;SDS011;51094;53.864;27.676;2023-03-14T13:48:15;1.10;;;1.10;;
64678;SDS011;51094;53.864;27.676;2023-03-14T13:51:01;1.08;;;1.08;;
64678;SDS011;51094;53.864;27.676;2023-03-14T13:53:31;1.00;;;1.00;;
64678;SDS011;51094;53.864;27.676;2023-03-14T13:56:10;1.00;;;1.00;;
64678;SDS011;51094;53.864;27.676;2023-03-14T13:58:38;1.10;;;1.10;;
64678;SDS011;51094;53.864;27.676;2023-03-14T14:01:12;1.10;;;1.10;;
64678;SDS011;51094;53.864;27.676;2023-03-14T14:03:40;1.20;;;1.20;;
64678;SDS011;51094;53.864;27.676;2023-03-14T14:14:12;1.13;;;1.13;;
64678;SDS011;51094;53.864;27.676;2023-03-14T14:16:46;1.10;;;1.10;;
64678;SDS011;51094;53.864;27.676;2023-03-14T14:19:19;1.13;;;1.13;;
64678;SDS011;51094;53.864;27.676;2023-03-14T14:21:48;1.13;;;1.13;;
64678;SDS011;51094;53.864;27.676;2023-03-14T14:24:17;1.20;;;1.20;;
64678;SDS011;51094;53.864;27.676;2023-03-14T14:26:47;1.17;;;1.17;;
64678;SDS011;51094;53.864;27.676;2023-03-14T14:29:24;1.10;;;1.10;;
64678;SDS011;51094;53.864;27.676;2023-03-14T14:32:13;1.20;;;1.20;;
64678;SDS011;51094;53.864;27.676;2023-03-14T14:37:28;1.70;;;1.70;;
64678;SDS011;51094;53.864;27.676;2023-03-14T14:40:07;1.80;;;1.70;;
64678;SDS011;51094;53.864;27.676;2023-03-14T14:42:39;1.40;;;1.40;;
64678;SDS011;51094;53.864;27.676;2023-03-14T14:45:16;1.30;;;1.30;;
64678;SDS011;51094;53.864;27.676;2023-03-14T14:50:32;1.20;;;1.20;;
64678;SDS011;51094;53.864;27.676;2023-03-14T14:53:20;1.50;;;1.50;;
64678;SDS011;51094;53.864;27.676;2023-03-14T14:56:04;1.50;;;1.50;;
64678;SDS011;51094;53.864;27.676;2023-03-14T14:58:41;1.60;;;1.60;;
64678;SDS011;51094;53.864;27.676;2023-03-14T15:01:12;1.55;;;1.55;;
64678;SDS011;51094;53.864;27.676;2023-03-14T15:03:51;1.60;;;1.60;;
64678;SDS011;51094;53.864;27.676;2023-03-14T15:06:19;1.55;;;1.55;;
64678;SDS011;51094;53.864;27.676;2023-03-14T15:08:47;1.48;;;1.48;;
64678;SDS011;51094;53.864;27.676;2023-03-14T15:11:22;1.20;;;1.20;;
64678;SDS011;51094;53.864;27.676;2023-03-14T15:13:51;1.60;;;1.60;;
64678;SDS011;51094;53.864;27.676;2023-03-14T15:16:20;1.38;;;1.38;;
64678;SDS011;51094;53.864;27.676;2023-03-14T15:18:53;1.40;;;1.40;;
64678;SDS011;51094;53.864;27.676;2023-03-14T15:21:25;1.30;;;1.30;;
64678;SDS011;51094;53.864;27.676;2023-03-14T15:23:53;1.20;;;1.20;;
64678;SDS011;51094;53.864;27.676;2023-03-14T15:26:21;1.30;;;1.30;;
64678;SDS011;51094;53.864;27.676;2023-03-14T15:28:50;1.20;;;1.20;;
64678;SDS011;51094;53.864;27.676;2023-03-14T15:31:17;1.30;;;1.30;;
64678;SDS011;51094;53.864;27.676;2023-03-14T15:33:45;1.30;;;1.30;;
64678;SDS011;51094;53.864;27.676;2023-03-14T15:36:20;1.35;;;1.35;;
64678;SDS011;51094;53.864;27.676;2023-03-14T15:38:51;1.45;;;1.45;;
64678;SDS011;51094;53.864;27.676;2023-03-14T15:41:22;1.20;;;1.20;;
64678;SDS011;51094;53.864;27.676;2023-03-14T15:43:50;1.50;;;1.50;;
64678;SDS011;51094;53.864;27.676;2023-03-14T15:46:17;1.23;;;1.23;;
64678;SDS011;51094;53.864;27.676;2023-03-14T15:48:45;1.30;;;1.30;;
64678;SDS011;51094;53.864;27.676;2023-03-14T15:51:13;1.20;;;1.20;;
64678;SDS011;51094;53.864;27.676;2023-03-14T15:53:40;1.10;;;1.10;;
64678;SDS011;51094;53.864;27.676;2023-03-14T15:56:09;1.27;;;1.27;;
64678;SDS011;51094;53.864;27.676;2023-03-14T15:58:38;1.20;;;1.15;;
64678;SDS011;51094;53.864;27.676;2023-03-14T16:01:07;1.13;;;1.13;;
64678;SDS011;51094;53.864;27.676;2023-03-14T16:03:39;1.30;;;1.30;;
64678;SDS011;51094;53.864;27.676;2023-03-14T16:06:06;1.13;;;1.13;;
64678;SDS011;51094;53.864;27.676;2023-03-14T16:08:33;1.17;;;1.17;;
64678;SDS011;51094;53.864;27.676;2023-03-14T16:11:00;1.20;;;1.20;;
64678;SDS011;51094;53.864;27.676;2023-03-14T16:13:28;1.08;;;1.08;;
64678;SDS011;51094;53.864;27.676;2023-03-14T16:15:59;1.30;;;1.30;;
64678;SDS011;51094;53.864;27.676;2023-03-14T16:18:28;1.10;;;1.10;;
64678;SDS011;51094;53.864;27.676;2023-03-14T16:20:57;1.20;;;1.20;;
64678;SDS011;51094;53.864;27.676;2023-03-14T16:23:26;1.10;;;1.10;;
64678;SDS011;51094;53.864;27.676;2023-03-14T16:25:53;0.90;;;0.90;;
64678;SDS011;51094;53.864;27.676;2023-03-14T16:28:21;1.10;;;1.10;;
64678;SDS011;51094;53.864;27.676;2023-03-14T16:30:48;1.00;;;1.00;;
64678;SDS011;51094;53.864;27.676;2023-03-14T16:33:15;1.10;;;1.10;;